LPE2392 SPJC-SKRG
Flight info
| Callsign | LPE2392 |
|---|---|
| Flight time | 2h 35m |
| Altitude | 37000 |
| Route | EVSUR2 AMVEX DCT TOKAN DCT ENPAP DCT TAP DCT UMSOK DCT ANDID DCT PLG DCT ORBAB DCT GIR DCT VASIL DCT NIRSO NIRSO3C |
| Aircraft | A320/M-SDE3FGHIRWY/LB1 |
Departure
| Time | 2026-05-08 02:51 |
|---|---|
| Airport | Jorge Chávez International Airport (SPJC) |
Arrival
| Time | 2026-05-08 05:27 |
|---|---|
| Airport | Jose Maria Córdova International Airport (SKRG) |
| Time | Latitude | Longitude | Altitude | Speed | Heading |
|---|---|---|---|---|---|
| 2026-05-08 02:24 | -12.02751 | -77.11659 | 84 ft | 0 kts | 244° |
| 2026-05-08 02:27 | -12.02750 | -77.11659 | 81 ft | 0 kts | 244° |
| 2026-05-08 02:42 | -12.02743 | -77.11645 | 84 ft | 4 kts | 237° |
| 2026-05-08 02:42 | -12.02726 | -77.11624 | 83 ft | 4 kts | 215° |
| 2026-05-08 02:42 | -12.02704 | -77.11615 | 83 ft | 4 kts | 167° |
| 2026-05-08 02:42 | -12.02697 | -77.11616 | 83 ft | 1 kts | 154° |
| 2026-05-08 02:45 | -12.02698 | -77.11616 | 83 ft | 2 kts | 154° |
| 2026-05-08 02:45 | -12.02720 | -77.11581 | 82 ft | 10 kts | 83° |
| 2026-05-08 02:45 | -12.02692 | -77.11517 | 85 ft | 9 kts | 64° |
| 2026-05-08 02:45 | -12.02667 | -77.11472 | 84 ft | 7 kts | 47° |
| 2026-05-08 02:46 | -12.02611 | -77.11479 | 86 ft | 10 kts | 334° |
| 2026-05-08 02:46 | -12.02534 | -77.11517 | 83 ft | 14 kts | 334° |
| 2026-05-08 02:46 | -12.02435 | -77.11566 | 83 ft | 18 kts | 334° |
| 2026-05-08 02:46 | -12.02308 | -77.11629 | 82 ft | 22 kts | 334° |
| 2026-05-08 02:47 | -12.02162 | -77.11700 | 70 ft | 25 kts | 335° |
| 2026-05-08 02:47 | -12.02012 | -77.11774 | 69 ft | 21 kts | 334° |
| 2026-05-08 02:47 | -12.01910 | -77.11824 | 67 ft | 15 kts | 334° |
| 2026-05-08 02:47 | -12.01832 | -77.11825 | 61 ft | 10 kts | 54° |
| 2026-05-08 02:48 | -12.01780 | -77.11806 | 61 ft | 11 kts | 334° |
| 2026-05-08 02:48 | -12.01687 | -77.11855 | 66 ft | 18 kts | 333° |
| 2026-05-08 02:48 | -12.01580 | -77.11911 | 64 ft | 16 kts | 333° |
| 2026-05-08 02:48 | -12.01472 | -77.11965 | 62 ft | 19 kts | 334° |
| 2026-05-08 02:49 | -12.01341 | -77.12030 | 57 ft | 22 kts | 334° |
| 2026-05-08 02:49 | -12.01233 | -77.12134 | 56 ft | 23 kts | 309° |
| 2026-05-08 02:49 | -12.01101 | -77.12215 | 53 ft | 21 kts | 333° |
| 2026-05-08 02:49 | -12.00981 | -77.12273 | 52 ft | 17 kts | 335° |
| 2026-05-08 02:50 | -12.00878 | -77.12314 | 51 ft | 15 kts | 6° |
| 2026-05-08 02:50 | -12.00828 | -77.12243 | 52 ft | 12 kts | 63° |
| 2026-05-08 02:50 | -12.00788 | -77.12162 | 51 ft | 15 kts | 65° |
| 2026-05-08 02:50 | -12.00857 | -77.12089 | 52 ft | 26 kts | 153° |
| 2026-05-08 02:51 | -12.01235 | -77.11903 | 58 ft | 92 kts | 154° |
| 2026-05-08 02:51 | -12.01693 | -77.11677 | 64 ft | 128 kts | 154° |
| 2026-05-08 02:51 | -12.02632 | -77.11213 | 113 ft | 168 kts | 155° |
| 2026-05-08 02:51 | -12.03688 | -77.10696 | 738 ft | 167 kts | 155° |
| 2026-05-08 02:52 | -12.04756 | -77.10171 | 1274 ft | 179 kts | 155° |
| 2026-05-08 02:52 | -12.05947 | -77.09584 | 1574 ft | 201 kts | 155° |
| 2026-05-08 02:52 | -12.07284 | -77.08924 | 1849 ft | 226 kts | 155° |
| 2026-05-08 02:52 | -12.08779 | -77.08185 | 2231 ft | 249 kts | 154° |
| 2026-05-08 02:53 | -12.10379 | -77.07395 | 2878 ft | 260 kts | 154° |
| 2026-05-08 02:53 | -12.12027 | -77.06579 | 3669 ft | 266 kts | 154° |
| 2026-05-08 02:53 | -12.13700 | -77.05752 | 4487 ft | 269 kts | 154° |
| 2026-05-08 02:53 | -12.15375 | -77.04925 | 5261 ft | 272 kts | 153° |
| 2026-05-08 02:54 | -12.16873 | -77.03753 | 5995 ft | 276 kts | 126° |
| 2026-05-08 02:54 | -12.17596 | -77.01933 | 6706 ft | 281 kts | 100° |
| 2026-05-08 02:54 | -12.17581 | -76.99927 | 7404 ft | 286 kts | 77° |
| 2026-05-08 02:54 | -12.16751 | -76.98083 | 8100 ft | 290 kts | 52° |
| 2026-05-08 02:55 | -12.15431 | -76.96517 | 8832 ft | 293 kts | 49° |
| 2026-05-08 02:55 | -12.12684 | -76.93391 | 10218 ft | 300 kts | 49° |
| 2026-05-08 02:55 | -12.11235 | -76.91746 | 10367 ft | 323 kts | 49° |
| 2026-05-08 02:56 | -12.09679 | -76.89975 | 10484 ft | 345 kts | 49° |
| 2026-05-08 02:56 | -12.07877 | -76.88290 | 10783 ft | 358 kts | 33° |
| 2026-05-08 02:56 | -12.05608 | -76.87206 | 11281 ft | 364 kts | 15° |
| 2026-05-08 02:56 | -12.03092 | -76.86894 | 11806 ft | 368 kts | 357° |
| 2026-05-08 02:57 | -12.00575 | -76.87427 | 12349 ft | 373 kts | 338° |
| 2026-05-08 02:57 | -11.98237 | -76.88600 | 12863 ft | 376 kts | 333° |
| 2026-05-08 02:57 | -11.95902 | -76.89845 | 13393 ft | 380 kts | 332° |
| 2026-05-08 02:57 | -11.93550 | -76.91105 | 13916 ft | 384 kts | 332° |
| 2026-05-08 02:58 | -11.91172 | -76.92377 | 14380 ft | 387 kts | 333° |
| 2026-05-08 02:58 | -11.88772 | -76.93655 | 14852 ft | 390 kts | 333° |
| 2026-05-08 02:58 | -11.86355 | -76.94936 | 15315 ft | 393 kts | 334° |
| 2026-05-08 02:58 | -11.83813 | -76.95960 | 15763 ft | 394 kts | 346° |
| 2026-05-08 02:59 | -11.81147 | -76.96648 | 16225 ft | 396 kts | 347° |
| 2026-05-08 02:59 | -11.78465 | -76.97330 | 16700 ft | 398 kts | 347° |
| 2026-05-08 02:59 | -11.75767 | -76.98016 | 17158 ft | 401 kts | 347° |
| 2026-05-08 02:59 | -11.73051 | -76.98709 | 17627 ft | 403 kts | 347° |
| 2026-05-08 03:00 | -11.70322 | -76.99407 | 18072 ft | 406 kts | 347° |
| 2026-05-08 03:00 | -11.67610 | -77.00100 | 18478 ft | 408 kts | 347° |
| 2026-05-08 03:00 | -11.64847 | -77.00808 | 18850 ft | 411 kts | 347° |
| 2026-05-08 03:00 | -11.62068 | -77.01522 | 19226 ft | 413 kts | 347° |
| 2026-05-08 03:01 | -11.59275 | -77.02238 | 19599 ft | 415 kts | 347° |
| 2026-05-08 03:01 | -11.56461 | -77.02959 | 19984 ft | 418 kts | 347° |
| 2026-05-08 03:01 | -11.53632 | -77.03683 | 20348 ft | 420 kts | 347° |
| 2026-05-08 03:01 | -11.50788 | -77.04408 | 20705 ft | 422 kts | 347° |
| 2026-05-08 03:02 | -11.47933 | -77.05133 | 21063 ft | 424 kts | 347° |
| 2026-05-08 03:02 | -11.45058 | -77.05862 | 21435 ft | 427 kts | 347° |
| 2026-05-08 03:02 | -11.42169 | -77.06598 | 21792 ft | 429 kts | 347° |
| 2026-05-08 03:02 | -11.39264 | -77.07338 | 22145 ft | 431 kts | 347° |
| 2026-05-08 03:03 | -11.36294 | -77.07794 | 22483 ft | 432 kts | 358° |
| 2026-05-08 03:03 | -11.33284 | -77.07691 | 22822 ft | 434 kts | 8° |
| 2026-05-08 03:03 | -11.30334 | -77.07035 | 23183 ft | 435 kts | 18° |
| 2026-05-08 03:03 | -11.27541 | -77.05854 | 23506 ft | 437 kts | 28° |
| 2026-05-08 03:04 | -11.24847 | -77.04396 | 23792 ft | 439 kts | 28° |
| 2026-05-08 03:04 | -11.22142 | -77.02935 | 24071 ft | 442 kts | 28° |
| 2026-05-08 03:04 | -11.19412 | -77.01467 | 24337 ft | 444 kts | 28° |
| 2026-05-08 03:04 | -11.16677 | -76.99998 | 24607 ft | 446 kts | 28° |
| 2026-05-08 03:05 | -11.13924 | -76.98522 | 24878 ft | 448 kts | 28° |
| 2026-05-08 03:05 | -11.11159 | -76.97042 | 25144 ft | 450 kts | 27° |
| 2026-05-08 03:05 | -11.08383 | -76.95555 | 25401 ft | 452 kts | 27° |
| 2026-05-08 03:05 | -11.05601 | -76.94060 | 25658 ft | 454 kts | 27° |
| 2026-05-08 03:06 | -11.02797 | -76.92550 | 25975 ft | 456 kts | 27° |
| 2026-05-08 03:06 | -10.99987 | -76.91036 | 26255 ft | 458 kts | 27° |
| 2026-05-08 03:06 | -10.97165 | -76.89517 | 26517 ft | 460 kts | 27° |
| 2026-05-08 03:06 | -10.94361 | -76.88007 | 26774 ft | 462 kts | 27° |
| 2026-05-08 03:07 | -10.91510 | -76.86475 | 27030 ft | 464 kts | 27° |
| 2026-05-08 03:07 | -10.88609 | -76.84920 | 27274 ft | 467 kts | 27° |
| 2026-05-08 03:07 | -10.85726 | -76.83377 | 27544 ft | 469 kts | 27° |
| 2026-05-08 03:07 | -10.82856 | -76.81873 | 27772 ft | 470 kts | 24° |
| 2026-05-08 03:08 | -10.79755 | -76.80676 | 27995 ft | 471 kts | 15° |
| 2026-05-08 03:08 | -10.76555 | -76.79959 | 28227 ft | 472 kts | 6° |
| 2026-05-08 03:08 | -10.73330 | -76.79596 | 28456 ft | 473 kts | 5° |
| 2026-05-08 03:08 | -10.70008 | -76.79239 | 28740 ft | 475 kts | 5° |
| 2026-05-08 03:09 | -10.66756 | -76.78883 | 28971 ft | 477 kts | 5° |
| 2026-05-08 03:09 | -10.63454 | -76.78514 | 29163 ft | 479 kts | 5° |
| 2026-05-08 03:09 | -10.60135 | -76.78142 | 29365 ft | 481 kts | 5° |
| 2026-05-08 03:09 | -10.56804 | -76.77769 | 29585 ft | 482 kts | 5° |
| 2026-05-08 03:10 | -10.53458 | -76.77398 | 29814 ft | 483 kts | 4° |
| 2026-05-08 03:10 | -10.50117 | -76.77031 | 30126 ft | 483 kts | 4° |
| 2026-05-08 03:10 | -10.46779 | -76.76662 | 30431 ft | 482 kts | 4° |
| 2026-05-08 03:10 | -10.43449 | -76.76292 | 30699 ft | 481 kts | 4° |
| 2026-05-08 03:11 | -10.40123 | -76.75925 | 30975 ft | 480 kts | 4° |
| 2026-05-08 03:11 | -10.36801 | -76.75561 | 31269 ft | 479 kts | 4° |
| 2026-05-08 03:11 | -10.33486 | -76.75199 | 31550 ft | 479 kts | 4° |
| 2026-05-08 03:11 | -10.30174 | -76.74839 | 31824 ft | 478 kts | 4° |
| 2026-05-08 03:12 | -10.26870 | -76.74478 | 32079 ft | 478 kts | 4° |
| 2026-05-08 03:12 | -10.23561 | -76.74113 | 32336 ft | 478 kts | 3° |
| 2026-05-08 03:12 | -10.20260 | -76.73746 | 32606 ft | 477 kts | 3° |
| 2026-05-08 03:12 | -10.16957 | -76.73379 | 32904 ft | 477 kts | 3° |
| 2026-05-08 03:13 | -10.13664 | -76.73016 | 33196 ft | 476 kts | 3° |
| 2026-05-08 03:13 | -10.10370 | -76.72654 | 33481 ft | 475 kts | 3° |
| 2026-05-08 03:13 | -10.07084 | -76.72293 | 33764 ft | 475 kts | 3° |
| 2026-05-08 03:13 | -10.03836 | -76.71936 | 34063 ft | 474 kts | 2° |
| 2026-05-08 03:14 | -10.00559 | -76.71577 | 34323 ft | 473 kts | 2° |
| 2026-05-08 03:14 | -9.97282 | -76.71216 | 34593 ft | 472 kts | 2° |
| 2026-05-08 03:14 | -9.94025 | -76.70860 | 34891 ft | 470 kts | 2° |
| 2026-05-08 03:14 | -9.90774 | -76.70504 | 35127 ft | 470 kts | 2° |
| 2026-05-08 03:15 | -9.87519 | -76.70147 | 35312 ft | 470 kts | 2° |
| 2026-05-08 03:15 | -9.84269 | -76.69789 | 35544 ft | 469 kts | 2° |
| 2026-05-08 03:15 | -9.81022 | -76.69430 | 35756 ft | 469 kts | 2° |
| 2026-05-08 03:15 | -9.77787 | -76.69075 | 36007 ft | 467 kts | 1° |
| 2026-05-08 03:16 | -9.74552 | -76.68722 | 36264 ft | 466 kts | 1° |
| 2026-05-08 03:16 | -9.71334 | -76.68371 | 36461 ft | 465 kts | 1° |
| 2026-05-08 03:16 | -9.68121 | -76.68019 | 36694 ft | 464 kts | 1° |
| 2026-05-08 03:16 | -9.64916 | -76.67665 | 36917 ft | 463 kts | 1° |
| 2026-05-08 03:17 | -9.61715 | -76.67315 | 37126 ft | 462 kts | 1° |
| 2026-05-08 03:17 | -9.55315 | -76.66615 | 37196 ft | 462 kts | 1° |
| 2026-05-08 03:18 | -9.48914 | -76.65910 | 37198 ft | 462 kts | 1° |
| 2026-05-08 03:18 | -9.42514 | -76.65212 | 37180 ft | 463 kts | 1° |
| 2026-05-08 03:19 | -9.36156 | -76.64514 | 37157 ft | 462 kts | 1° |
| 2026-05-08 03:19 | -9.29755 | -76.63817 | 37157 ft | 463 kts | 1° |
| 2026-05-08 03:20 | -9.23347 | -76.63120 | 37139 ft | 463 kts | 1° |
| 2026-05-08 03:20 | -9.16940 | -76.62425 | 37131 ft | 464 kts | 1° |
| 2026-05-08 03:21 | -9.10519 | -76.61723 | 37120 ft | 464 kts | 1° |
| 2026-05-08 03:21 | -9.04084 | -76.61009 | 37124 ft | 464 kts | 1° |
| 2026-05-08 03:22 | -8.97673 | -76.60302 | 37108 ft | 463 kts | 1° |
| 2026-05-08 03:22 | -8.91251 | -76.59609 | 37109 ft | 464 kts | 1° |
| 2026-05-08 03:23 | -8.84830 | -76.58915 | 37104 ft | 463 kts | 1° |
| 2026-05-08 03:23 | -8.78407 | -76.58220 | 37081 ft | 465 kts | 1° |
| 2026-05-08 03:24 | -8.71966 | -76.57514 | 37086 ft | 465 kts | 1° |
| 2026-05-08 03:24 | -8.65521 | -76.56814 | 37061 ft | 465 kts | 1° |
| 2026-05-08 03:25 | -8.59076 | -76.56112 | 37066 ft | 466 kts | 1° |
| 2026-05-08 03:25 | -8.52621 | -76.55410 | 37037 ft | 467 kts | 1° |
| 2026-05-08 03:26 | -8.46173 | -76.54701 | 37031 ft | 466 kts | 1° |
| 2026-05-08 03:26 | -8.39721 | -76.53998 | 37007 ft | 467 kts | 1° |
| 2026-05-08 03:27 | -8.33251 | -76.53297 | 37006 ft | 467 kts | 1° |
| 2026-05-08 03:27 | -8.26786 | -76.52587 | 37010 ft | 467 kts | 2° |
| 2026-05-08 03:28 | -8.20317 | -76.51882 | 36997 ft | 467 kts | 1° |
| 2026-05-08 03:28 | -8.13892 | -76.51181 | 36998 ft | 468 kts | 2° |
| 2026-05-08 03:29 | -8.07422 | -76.50473 | 36978 ft | 468 kts | 2° |
| 2026-05-08 03:29 | -8.00946 | -76.49770 | 36972 ft | 468 kts | 2° |
| 2026-05-08 03:30 | -7.91241 | -76.48719 | 36963 ft | 468 kts | 2° |
| 2026-05-08 03:31 | -7.78290 | -76.47317 | 36955 ft | 468 kts | 2° |
| 2026-05-08 03:32 | -7.68583 | -76.46266 | 36951 ft | 467 kts | 2° |
| 2026-05-08 03:32 | -7.62117 | -76.45562 | 36937 ft | 468 kts | 2° |
| 2026-05-08 03:33 | -7.55644 | -76.44854 | 36934 ft | 468 kts | 2° |
| 2026-05-08 03:33 | -7.49176 | -76.44151 | 36935 ft | 468 kts | 2° |
| 2026-05-08 03:34 | -7.43790 | -76.43573 | 36939 ft | 468 kts | 2° |
| 2026-05-08 03:34 | -7.37311 | -76.42873 | 36920 ft | 468 kts | 2° |
| 2026-05-08 03:35 | -7.30841 | -76.42163 | 36922 ft | 468 kts | 2° |
| 2026-05-08 03:36 | -7.17521 | -76.40723 | 36912 ft | 468 kts | 2° |
| 2026-05-08 03:36 | -7.11046 | -76.40028 | 36911 ft | 468 kts | 2° |
| 2026-05-08 03:37 | -7.04578 | -76.39322 | 36902 ft | 468 kts | 2° |
| 2026-05-08 03:37 | -6.98108 | -76.38616 | 36899 ft | 468 kts | 2° |
| 2026-05-08 03:38 | -6.91637 | -76.37911 | 36895 ft | 468 kts | 2° |
| 2026-05-08 03:38 | -6.85165 | -76.37214 | 36897 ft | 468 kts | 2° |
| 2026-05-08 03:39 | -6.78685 | -76.36520 | 36907 ft | 468 kts | 2° |
| 2026-05-08 03:39 | -6.72216 | -76.35819 | 36915 ft | 468 kts | 2° |
| 2026-05-08 03:40 | -6.65776 | -76.35071 | 36922 ft | 470 kts | 7° |
| 2026-05-08 03:40 | -6.59385 | -76.33545 | 36924 ft | 472 kts | 10° |
| 2026-05-08 03:41 | -6.53006 | -76.31978 | 36924 ft | 471 kts | 10° |
| 2026-05-08 03:41 | -6.46631 | -76.30417 | 36922 ft | 471 kts | 10° |
| 2026-05-08 03:42 | -6.40256 | -76.28860 | 36916 ft | 471 kts | 10° |
| 2026-05-08 03:42 | -6.33874 | -76.27289 | 36910 ft | 472 kts | 10° |
| 2026-05-08 03:43 | -6.27491 | -76.25720 | 36895 ft | 472 kts | 10° |
| 2026-05-08 03:43 | -6.21113 | -76.24163 | 36899 ft | 471 kts | 10° |
| 2026-05-08 03:44 | -6.14738 | -76.22603 | 36901 ft | 471 kts | 10° |
| 2026-05-08 03:44 | -6.08406 | -76.21055 | 36893 ft | 471 kts | 10° |
| 2026-05-08 03:45 | -6.01996 | -76.19486 | 36890 ft | 471 kts | 10° |
| 2026-05-08 03:45 | -5.95665 | -76.17928 | 36890 ft | 471 kts | 10° |
| 2026-05-08 03:46 | -5.89294 | -76.16371 | 36892 ft | 471 kts | 10° |
| 2026-05-08 03:46 | -5.82916 | -76.14816 | 36894 ft | 471 kts | 10° |
| 2026-05-08 03:47 | -5.76545 | -76.13258 | 36899 ft | 472 kts | 10° |
| 2026-05-08 03:47 | -5.70167 | -76.11698 | 36897 ft | 472 kts | 10° |
| 2026-05-08 03:48 | -5.63784 | -76.10140 | 36901 ft | 472 kts | 10° |
| 2026-05-08 03:48 | -5.57404 | -76.08581 | 36911 ft | 472 kts | 10° |
| 2026-05-08 03:49 | -5.51015 | -76.07017 | 36913 ft | 471 kts | 10° |
| 2026-05-08 03:49 | -5.44642 | -76.05451 | 36916 ft | 471 kts | 10° |
| 2026-05-08 03:50 | -5.38266 | -76.03895 | 36912 ft | 472 kts | 10° |
| 2026-05-08 03:50 | -5.31888 | -76.02344 | 36924 ft | 471 kts | 10° |
| 2026-05-08 03:51 | -5.25516 | -76.00789 | 36916 ft | 471 kts | 10° |
| 2026-05-08 03:51 | -5.19141 | -75.99230 | 36923 ft | 472 kts | 10° |
| 2026-05-08 03:52 | -5.12805 | -75.97675 | 36924 ft | 471 kts | 10° |
| 2026-05-08 03:52 | -5.06432 | -75.96118 | 36927 ft | 471 kts | 10° |
| 2026-05-08 03:53 | -5.00063 | -75.94571 | 36927 ft | 470 kts | 10° |
| 2026-05-08 03:53 | -4.93706 | -75.93023 | 36935 ft | 470 kts | 10° |
| 2026-05-08 03:54 | -4.87346 | -75.91471 | 36933 ft | 470 kts | 10° |
| 2026-05-08 03:54 | -4.80978 | -75.89920 | 36930 ft | 470 kts | 10° |
| 2026-05-08 03:55 | -4.74622 | -75.88368 | 36939 ft | 470 kts | 10° |
| 2026-05-08 03:55 | -4.68263 | -75.86819 | 36941 ft | 469 kts | 10° |
| 2026-05-08 03:56 | -4.61960 | -75.85285 | 36941 ft | 469 kts | 10° |
| 2026-05-08 03:56 | -4.55621 | -75.83742 | 36950 ft | 469 kts | 10° |
| 2026-05-08 03:57 | -4.49268 | -75.82192 | 36944 ft | 469 kts | 11° |
| 2026-05-08 03:57 | -4.42925 | -75.80643 | 36951 ft | 469 kts | 11° |
| 2026-05-08 03:58 | -4.36578 | -75.79100 | 36954 ft | 469 kts | 11° |
| 2026-05-08 03:58 | -4.30234 | -75.77557 | 36955 ft | 469 kts | 11° |
| 2026-05-08 03:59 | -4.23887 | -75.76006 | 36963 ft | 469 kts | 11° |
| 2026-05-08 03:59 | -4.17541 | -75.74460 | 36961 ft | 469 kts | 11° |
| 2026-05-08 04:00 | -4.11198 | -75.72913 | 36963 ft | 469 kts | 11° |
| 2026-05-08 04:00 | -4.04853 | -75.71370 | 36972 ft | 469 kts | 11° |
| 2026-05-08 04:01 | -3.98515 | -75.69836 | 36973 ft | 469 kts | 11° |
| 2026-05-08 04:01 | -3.92214 | -75.68303 | 36973 ft | 469 kts | 11° |
| 2026-05-08 04:02 | -3.85877 | -75.66760 | 36969 ft | 469 kts | 11° |
| 2026-05-08 04:02 | -3.79538 | -75.65224 | 36963 ft | 469 kts | 11° |
| 2026-05-08 04:03 | -3.73199 | -75.63685 | 36974 ft | 469 kts | 11° |
| 2026-05-08 04:03 | -3.64720 | -75.61621 | 36973 ft | 469 kts | 11° |
| 2026-05-08 04:04 | -3.58371 | -75.60082 | 36974 ft | 469 kts | 11° |
| 2026-05-08 04:04 | -3.52027 | -75.58543 | 36976 ft | 469 kts | 11° |
| 2026-05-08 04:05 | -3.45731 | -75.57015 | 36973 ft | 468 kts | 11° |
| 2026-05-08 04:05 | -3.39395 | -75.55473 | 36966 ft | 468 kts | 11° |
| 2026-05-08 04:06 | -3.33057 | -75.53935 | 36971 ft | 468 kts | 11° |
| 2026-05-08 04:06 | -3.26721 | -75.52393 | 36970 ft | 468 kts | 11° |
| 2026-05-08 04:07 | -3.20390 | -75.50852 | 36968 ft | 468 kts | 11° |
| 2026-05-08 04:07 | -3.14053 | -75.49312 | 36969 ft | 469 kts | 11° |
| 2026-05-08 04:08 | -3.07708 | -75.47775 | 36968 ft | 469 kts | 11° |
| 2026-05-08 04:08 | -3.01368 | -75.46238 | 36970 ft | 469 kts | 11° |
| 2026-05-08 04:09 | -2.95024 | -75.44698 | 36974 ft | 469 kts | 11° |
| 2026-05-08 04:09 | -2.88691 | -75.43158 | 36973 ft | 468 kts | 12° |
| 2026-05-08 04:10 | -2.82364 | -75.41622 | 36971 ft | 468 kts | 12° |
| 2026-05-08 04:10 | -2.76034 | -75.40090 | 36966 ft | 468 kts | 11° |
| 2026-05-08 04:11 | -2.69703 | -75.38555 | 36967 ft | 468 kts | 12° |
| 2026-05-08 04:11 | -2.63410 | -75.37026 | 36974 ft | 468 kts | 12° |
| 2026-05-08 04:12 | -2.57077 | -75.35487 | 36971 ft | 468 kts | 12° |
| 2026-05-08 04:12 | -2.50748 | -75.33951 | 36975 ft | 468 kts | 12° |
| 2026-05-08 04:13 | -2.44426 | -75.32412 | 36971 ft | 468 kts | 12° |
| 2026-05-08 04:13 | -2.38103 | -75.30881 | 36977 ft | 467 kts | 12° |
| 2026-05-08 04:14 | -2.31782 | -75.29353 | 36979 ft | 467 kts | 12° |
| 2026-05-08 04:14 | -2.25458 | -75.27823 | 36977 ft | 467 kts | 12° |
| 2026-05-08 04:15 | -2.19130 | -75.26297 | 36971 ft | 467 kts | 12° |
| 2026-05-08 04:15 | -2.12814 | -75.24767 | 36977 ft | 467 kts | 12° |
| 2026-05-08 04:16 | -2.06503 | -75.23233 | 36976 ft | 466 kts | 12° |
| 2026-05-08 04:16 | -2.00195 | -75.21706 | 36981 ft | 466 kts | 12° |
| 2026-05-08 04:17 | -1.93887 | -75.20177 | 36980 ft | 466 kts | 12° |
| 2026-05-08 04:17 | -1.87578 | -75.18651 | 36979 ft | 466 kts | 12° |
| 2026-05-08 04:18 | -1.81270 | -75.17118 | 36976 ft | 466 kts | 12° |
| 2026-05-08 04:18 | -1.74961 | -75.15593 | 36983 ft | 466 kts | 12° |
| 2026-05-08 04:19 | -1.68660 | -75.14068 | 36978 ft | 466 kts | 12° |
| 2026-05-08 04:19 | -1.62393 | -75.12555 | 36978 ft | 466 kts | 12° |
| 2026-05-08 04:20 | -1.56091 | -75.11028 | 36981 ft | 466 kts | 12° |
| 2026-05-08 04:20 | -1.49788 | -75.09494 | 36983 ft | 466 kts | 12° |
| 2026-05-08 04:21 | -1.43494 | -75.07967 | 36980 ft | 465 kts | 12° |
| 2026-05-08 04:21 | -1.37201 | -75.06445 | 36992 ft | 465 kts | 12° |
| 2026-05-08 04:22 | -1.30911 | -75.04922 | 36987 ft | 465 kts | 12° |
| 2026-05-08 04:22 | -1.24628 | -75.03402 | 36987 ft | 464 kts | 12° |
| 2026-05-08 04:23 | -1.18346 | -75.01882 | 36987 ft | 463 kts | 12° |
| 2026-05-08 04:23 | -1.12078 | -75.00363 | 36985 ft | 463 kts | 12° |
| 2026-05-08 04:24 | -1.05808 | -74.98840 | 36983 ft | 464 kts | 12° |
| 2026-05-08 04:24 | -0.99564 | -74.97329 | 36982 ft | 464 kts | 12° |
| 2026-05-08 04:25 | -0.93281 | -74.95819 | 36987 ft | 464 kts | 12° |
| 2026-05-08 04:25 | -0.87009 | -74.94306 | 36986 ft | 464 kts | 12° |
| 2026-05-08 04:26 | -0.80730 | -74.92779 | 36985 ft | 464 kts | 12° |
| 2026-05-08 04:26 | -0.74449 | -74.91250 | 36985 ft | 464 kts | 12° |
| 2026-05-08 04:27 | -0.68166 | -74.89732 | 36991 ft | 463 kts | 12° |
| 2026-05-08 04:27 | -0.61902 | -74.88219 | 36992 ft | 463 kts | 12° |
| 2026-05-08 04:28 | -0.55641 | -74.86702 | 36988 ft | 463 kts | 12° |
| 2026-05-08 04:28 | -0.49387 | -74.85189 | 36985 ft | 462 kts | 12° |
| 2026-05-08 04:29 | -0.43134 | -74.83681 | 36988 ft | 462 kts | 12° |
| 2026-05-08 04:29 | -0.36876 | -74.82166 | 36982 ft | 462 kts | 12° |
| 2026-05-08 04:30 | -0.30617 | -74.80651 | 36986 ft | 463 kts | 12° |
| 2026-05-08 04:30 | -0.24351 | -74.79131 | 36983 ft | 463 kts | 12° |
| 2026-05-08 04:31 | -0.18069 | -74.77749 | 36991 ft | 461 kts | 5° |
| 2026-05-08 04:31 | -0.11675 | -74.77685 | 36987 ft | 460 kts | 357° |
| 2026-05-08 04:32 | -0.05280 | -74.77828 | 36982 ft | 460 kts | 358° |
| 2026-05-08 04:32 | 0.01081 | -74.77956 | 36994 ft | 460 kts | 358° |
| 2026-05-08 04:33 | 0.07481 | -74.78088 | 36989 ft | 460 kts | 358° |
| 2026-05-08 04:33 | 0.13885 | -74.78220 | 36987 ft | 460 kts | 358° |
| 2026-05-08 04:34 | 0.20289 | -74.78350 | 36987 ft | 460 kts | 358° |
| 2026-05-08 04:34 | 0.26696 | -74.78480 | 36986 ft | 460 kts | 358° |
| 2026-05-08 04:35 | 0.33099 | -74.78609 | 36991 ft | 460 kts | 358° |
| 2026-05-08 04:35 | 0.39506 | -74.78742 | 36988 ft | 460 kts | 358° |
| 2026-05-08 04:36 | 0.45912 | -74.78878 | 36988 ft | 461 kts | 358° |
| 2026-05-08 04:36 | 0.52323 | -74.79011 | 36989 ft | 461 kts | 358° |
| 2026-05-08 04:37 | 0.58734 | -74.79146 | 36990 ft | 461 kts | 358° |
| 2026-05-08 04:37 | 0.65148 | -74.79276 | 36991 ft | 461 kts | 358° |
| 2026-05-08 04:38 | 0.71561 | -74.79405 | 36992 ft | 461 kts | 358° |
| 2026-05-08 04:38 | 0.77988 | -74.79544 | 36994 ft | 461 kts | 358° |
| 2026-05-08 04:39 | 0.84408 | -74.79673 | 36996 ft | 461 kts | 358° |
| 2026-05-08 04:39 | 0.90830 | -74.79805 | 36996 ft | 461 kts | 358° |
| 2026-05-08 04:40 | 0.97213 | -74.79937 | 36994 ft | 462 kts | 358° |
| 2026-05-08 04:40 | 1.03635 | -74.80065 | 36995 ft | 462 kts | 358° |
| 2026-05-08 04:41 | 1.10062 | -74.80197 | 36996 ft | 461 kts | 358° |
| 2026-05-08 04:41 | 1.16486 | -74.80332 | 36996 ft | 462 kts | 358° |
| 2026-05-08 04:42 | 1.22902 | -74.80466 | 36995 ft | 461 kts | 358° |
| 2026-05-08 04:42 | 1.29330 | -74.80595 | 36995 ft | 461 kts | 358° |
| 2026-05-08 04:43 | 1.35745 | -74.80728 | 36996 ft | 461 kts | 358° |
| 2026-05-08 04:43 | 1.42165 | -74.80859 | 36995 ft | 461 kts | 358° |
| 2026-05-08 04:44 | 1.48585 | -74.80993 | 36994 ft | 461 kts | 358° |
| 2026-05-08 04:44 | 1.53923 | -74.81098 | 36989 ft | 462 kts | 358° |
| 2026-05-08 04:45 | 1.60348 | -74.81228 | 36987 ft | 462 kts | 358° |
| 2026-05-08 04:45 | 1.66782 | -74.81364 | 36993 ft | 462 kts | 358° |
| 2026-05-08 04:46 | 1.73214 | -74.81499 | 36991 ft | 462 kts | 358° |
| 2026-05-08 04:46 | 1.79648 | -74.81634 | 36999 ft | 463 kts | 358° |
| 2026-05-08 04:47 | 1.86090 | -74.81766 | 37000 ft | 463 kts | 358° |
| 2026-05-08 04:47 | 1.92526 | -74.81892 | 37012 ft | 463 kts | 358° |
| 2026-05-08 04:48 | 1.98973 | -74.82023 | 37010 ft | 463 kts | 358° |
| 2026-05-08 04:48 | 2.05409 | -74.82154 | 37011 ft | 463 kts | 358° |
| 2026-05-08 04:49 | 2.11854 | -74.82292 | 37041 ft | 463 kts | 358° |
| 2026-05-08 04:49 | 2.18305 | -74.82434 | 37043 ft | 463 kts | 358° |
| 2026-05-08 04:50 | 2.24757 | -74.82566 | 37074 ft | 463 kts | 358° |
| 2026-05-08 04:50 | 2.31202 | -74.82692 | 37072 ft | 463 kts | 358° |
| 2026-05-08 04:51 | 2.37652 | -74.82821 | 37106 ft | 463 kts | 358° |
| 2026-05-08 04:51 | 2.44093 | -74.82957 | 37106 ft | 463 kts | 358° |
| 2026-05-08 04:52 | 2.50494 | -74.83090 | 37105 ft | 463 kts | 358° |
| 2026-05-08 04:52 | 2.56943 | -74.83219 | 37129 ft | 463 kts | 358° |
| 2026-05-08 04:53 | 2.63394 | -74.83351 | 37124 ft | 463 kts | 357° |
| 2026-05-08 04:53 | 2.69843 | -74.83490 | 37134 ft | 463 kts | 357° |
| 2026-05-08 04:54 | 2.76287 | -74.83622 | 37132 ft | 463 kts | 357° |
| 2026-05-08 04:54 | 2.82737 | -74.83757 | 37133 ft | 463 kts | 357° |
| 2026-05-08 04:55 | 2.89182 | -74.83891 | 37132 ft | 463 kts | 357° |
| 2026-05-08 04:55 | 2.95632 | -74.84018 | 37127 ft | 464 kts | 357° |
| 2026-05-08 04:56 | 3.02078 | -74.84145 | 37140 ft | 463 kts | 357° |
| 2026-05-08 04:56 | 3.08514 | -74.84276 | 37142 ft | 462 kts | 357° |
| 2026-05-08 04:57 | 3.14944 | -74.84416 | 37134 ft | 462 kts | 357° |
| 2026-05-08 04:57 | 3.21383 | -74.84551 | 37134 ft | 462 kts | 357° |
| 2026-05-08 04:58 | 3.27813 | -74.84680 | 37126 ft | 462 kts | 357° |
| 2026-05-08 04:58 | 3.34243 | -74.84809 | 37126 ft | 462 kts | 357° |
| 2026-05-08 04:59 | 3.40669 | -74.84947 | 37123 ft | 462 kts | 357° |
| 2026-05-08 04:59 | 3.47096 | -74.85080 | 37121 ft | 462 kts | 357° |
| 2026-05-08 05:00 | 3.53523 | -74.85212 | 37123 ft | 462 kts | 357° |
| 2026-05-08 05:00 | 3.59954 | -74.85341 | 37125 ft | 462 kts | 357° |
| 2026-05-08 05:01 | 3.66383 | -74.85474 | 37125 ft | 462 kts | 357° |
| 2026-05-08 05:01 | 3.72815 | -74.85608 | 37116 ft | 462 kts | 357° |
| 2026-05-08 05:02 | 3.79240 | -74.85735 | 37117 ft | 462 kts | 357° |
| 2026-05-08 05:02 | 3.85666 | -74.85865 | 37108 ft | 462 kts | 357° |
| 2026-05-08 05:03 | 3.92097 | -74.85996 | 37107 ft | 462 kts | 357° |
| 2026-05-08 05:03 | 3.98522 | -74.86129 | 37108 ft | 462 kts | 357° |
| 2026-05-08 05:04 | 4.04909 | -74.86264 | 37110 ft | 462 kts | 357° |
| 2026-05-08 05:04 | 4.11341 | -74.86395 | 37104 ft | 462 kts | 357° |
| 2026-05-08 05:05 | 4.17770 | -74.86595 | 37115 ft | 462 kts | 352° |
| 2026-05-08 05:05 | 4.23966 | -74.88142 | 37113 ft | 459 kts | 340° |
| 2026-05-08 05:06 | 4.30022 | -74.90169 | 37135 ft | 459 kts | 340° |
| 2026-05-08 05:06 | 4.36084 | -74.92192 | 37135 ft | 459 kts | 340° |
| 2026-05-08 05:07 | 4.42152 | -74.94210 | 37158 ft | 459 kts | 340° |
| 2026-05-08 05:07 | 4.48217 | -74.96234 | 37155 ft | 459 kts | 340° |
| 2026-05-08 05:08 | 4.54286 | -74.98264 | 37154 ft | 459 kts | 340° |
| 2026-05-08 05:08 | 4.60357 | -75.00299 | 37104 ft | 460 kts | 340° |
| 2026-05-08 05:09 | 4.66428 | -75.02325 | 37128 ft | 460 kts | 340° |
| 2026-05-08 05:09 | 4.72497 | -75.04350 | 37160 ft | 460 kts | 340° |
| 2026-05-08 05:10 | 4.75501 | -75.05356 | 36359 ft | 462 kts | 340° |
| 2026-05-08 05:10 | 4.81669 | -75.07424 | 34263 ft | 468 kts | 340° |
| 2026-05-08 05:10 | 4.84783 | -75.08465 | 33193 ft | 475 kts | 341° |
| 2026-05-08 05:11 | 4.87941 | -75.09522 | 32155 ft | 481 kts | 341° |
| 2026-05-08 05:11 | 4.91136 | -75.10589 | 31119 ft | 487 kts | 341° |
| 2026-05-08 05:11 | 4.94358 | -75.11664 | 30391 ft | 486 kts | 341° |
| 2026-05-08 05:11 | 4.97556 | -75.12732 | 29635 ft | 483 kts | 342° |
| 2026-05-08 05:12 | 5.00724 | -75.13790 | 28951 ft | 478 kts | 342° |
| 2026-05-08 05:12 | 5.03860 | -75.14839 | 28253 ft | 473 kts | 342° |
| 2026-05-08 05:12 | 5.06965 | -75.15878 | 27577 ft | 468 kts | 342° |
| 2026-05-08 05:12 | 5.10033 | -75.16905 | 26915 ft | 463 kts | 342° |
| 2026-05-08 05:13 | 5.13030 | -75.18047 | 26256 ft | 460 kts | 335° |
| 2026-05-08 05:13 | 5.15778 | -75.19667 | 25595 ft | 457 kts | 324° |
| 2026-05-08 05:13 | 5.18178 | -75.21739 | 24962 ft | 454 kts | 314° |
| 2026-05-08 05:13 | 5.20271 | -75.24098 | 24333 ft | 451 kts | 312° |
| 2026-05-08 05:14 | 5.22340 | -75.26453 | 23700 ft | 448 kts | 312° |
| 2026-05-08 05:14 | 5.24396 | -75.28780 | 23047 ft | 444 kts | 312° |
| 2026-05-08 05:14 | 5.26459 | -75.31110 | 22499 ft | 437 kts | 312° |
| 2026-05-08 05:14 | 5.28442 | -75.33346 | 21968 ft | 432 kts | 312° |
| 2026-05-08 05:15 | 5.30431 | -75.35579 | 21452 ft | 426 kts | 313° |
| 2026-05-08 05:15 | 5.32619 | -75.37544 | 20915 ft | 419 kts | 325° |
| 2026-05-08 05:15 | 5.35123 | -75.38987 | 20394 ft | 413 kts | 337° |
| 2026-05-08 05:15 | 5.37836 | -75.39865 | 19883 ft | 408 kts | 349° |
| 2026-05-08 05:16 | 5.40646 | -75.40202 | 19136 ft | 406 kts | 357° |
| 2026-05-08 05:16 | 5.43431 | -75.40367 | 18523 ft | 394 kts | 358° |
| 2026-05-08 05:16 | 5.46160 | -75.40510 | 17951 ft | 391 kts | 358° |
| 2026-05-08 05:16 | 5.48867 | -75.40646 | 17444 ft | 388 kts | 358° |
| 2026-05-08 05:17 | 5.51557 | -75.40784 | 16934 ft | 386 kts | 358° |
| 2026-05-08 05:17 | 5.54238 | -75.40927 | 16415 ft | 385 kts | 358° |
| 2026-05-08 05:17 | 5.56906 | -75.41072 | 15905 ft | 383 kts | 357° |
| 2026-05-08 05:17 | 5.59560 | -75.41218 | 15378 ft | 382 kts | 357° |
| 2026-05-08 05:18 | 5.62204 | -75.41362 | 14849 ft | 380 kts | 358° |
| 2026-05-08 05:18 | 5.64823 | -75.41506 | 14537 ft | 368 kts | 357° |
| 2026-05-08 05:18 | 5.67296 | -75.41646 | 14419 ft | 344 kts | 357° |
| 2026-05-08 05:18 | 5.69611 | -75.41780 | 14305 ft | 323 kts | 357° |
| 2026-05-08 05:19 | 5.71789 | -75.41904 | 14193 ft | 304 kts | 357° |
| 2026-05-08 05:19 | 5.73843 | -75.42019 | 14080 ft | 287 kts | 358° |
| 2026-05-08 05:19 | 5.75797 | -75.42128 | 13843 ft | 277 kts | 358° |
| 2026-05-08 05:19 | 5.77703 | -75.42232 | 13548 ft | 272 kts | 358° |
| 2026-05-08 05:20 | 5.79596 | -75.42278 | 13148 ft | 274 kts | 0° |
| 2026-05-08 05:20 | 5.81506 | -75.42276 | 12809 ft | 272 kts | 1° |
| 2026-05-08 05:20 | 5.83380 | -75.42260 | 12369 ft | 268 kts | 1° |
| 2026-05-08 05:20 | 5.85216 | -75.42243 | 12139 ft | 257 kts | 1° |
| 2026-05-08 05:21 | 5.86951 | -75.42232 | 12032 ft | 242 kts | 1° |
| 2026-05-08 05:21 | 5.88607 | -75.42226 | 11877 ft | 236 kts | 1° |
| 2026-05-08 05:21 | 5.90231 | -75.42224 | 11567 ft | 232 kts | 2° |
| 2026-05-08 05:21 | 5.91841 | -75.42176 | 11278 ft | 230 kts | 2° |
| 2026-05-08 05:22 | 5.93441 | -75.42164 | 11003 ft | 229 kts | 1° |
| 2026-05-08 05:22 | 5.95030 | -75.42172 | 10731 ft | 228 kts | 1° |
| 2026-05-08 05:22 | 5.96584 | -75.42183 | 10473 ft | 223 kts | 1° |
| 2026-05-08 05:22 | 5.98131 | -75.42193 | 10216 ft | 215 kts | 1° |
| 2026-05-08 05:23 | 5.99580 | -75.42203 | 9971 ft | 201 kts | 1° |
| 2026-05-08 05:23 | 6.00949 | -75.42212 | 9710 ft | 193 kts | 1° |
| 2026-05-08 05:23 | 6.02263 | -75.42220 | 9470 ft | 190 kts | 1° |
| 2026-05-08 05:23 | 6.03595 | -75.42229 | 9231 ft | 188 kts | 1° |
| 2026-05-08 05:24 | 6.04902 | -75.42237 | 8997 ft | 187 kts | 1° |
| 2026-05-08 05:24 | 6.06197 | -75.42245 | 8768 ft | 182 kts | 1° |
| 2026-05-08 05:24 | 6.07413 | -75.42254 | 8553 ft | 170 kts | 1° |
| 2026-05-08 05:24 | 6.08576 | -75.42261 | 8338 ft | 165 kts | 1° |
| 2026-05-08 05:25 | 6.09715 | -75.42269 | 8132 ft | 163 kts | 1° |
| 2026-05-08 05:25 | 6.10830 | -75.42276 | 7903 ft | 162 kts | 1° |
| 2026-05-08 05:25 | 6.11958 | -75.42283 | 7664 ft | 162 kts | 0° |
| 2026-05-08 05:25 | 6.13085 | -75.42290 | 7417 ft | 162 kts | 0° |
| 2026-05-08 05:26 | 6.14215 | -75.42298 | 7162 ft | 162 kts | 360° |
| 2026-05-08 05:26 | 6.14977 | -75.42302 | 7028 ft | 162 kts | 0° |
| 2026-05-08 05:26 | 6.16360 | -75.42309 | 6982 ft | 119 kts | 359° |
| 2026-05-08 05:26 | 6.16766 | -75.42313 | 6988 ft | 53 kts | 359° |
| 2026-05-08 05:27 | 6.16979 | -75.42346 | 7013 ft | 23 kts | 340° |
| 2026-05-08 05:27 | 6.17091 | -75.42403 | 7013 ft | 17 kts | 330° |
| 2026-05-08 05:27 | 6.17179 | -75.42467 | 7017 ft | 14 kts | 296° |
| 2026-05-08 05:27 | 6.17184 | -75.42561 | 7015 ft | 13 kts | 269° |
| 2026-05-08 05:28 | 6.17207 | -75.42615 | 7019 ft | 8 kts | 339° |
| 2026-05-08 05:28 | 6.17265 | -75.42619 | 7018 ft | 9 kts | 357° |
| 2026-05-08 05:28 | 6.17334 | -75.42634 | 7022 ft | 10 kts | 316° |
| 2026-05-08 05:28 | 6.17353 | -75.42692 | 7018 ft | 8 kts | 287° |
| 2026-05-08 05:29 | 6.17377 | -75.42744 | 7019 ft | 8 kts | 295° |
| 2026-05-08 05:29 | 6.17395 | -75.42794 | 7018 ft | 8 kts | 287° |
| 2026-05-08 05:29 | 6.17411 | -75.42856 | 7019 ft | 9 kts | 282° |
| 2026-05-08 05:29 | 6.17384 | -75.42892 | 7019 ft | 7 kts | 193° |
| 2026-05-08 05:30 | 6.17341 | -75.42900 | 7018 ft | 3 kts | 190° |
| 2026-05-08 05:30 | 6.17329 | -75.42903 | 7021 ft | 1 kts | 190° |
| 2026-05-08 05:30 | 6.17326 | -75.42903 | 7021 ft | 0 kts | 190° |
| 2026-05-08 05:30 | 6.17325 | -75.42903 | 7021 ft | 0 kts | 190° |
| 2026-05-08 05:35 | 6.17326 | -75.42903 | 7021 ft | 0 kts | 190° |